Agua de Oro, Argentina
Current Conditions -  °F | °C
As of 9:00 AM on Sunday 25 Jan 2015 (Local Time) from SACO Reporting Station
Clear Clear  
Wind Chill: 27°   Ceiling: Unl
Heat Index: 29°   Visibility: 6mi
Dew Point: 22°   Wind: 2mph
Humidity: 74%   Direction: 340°NNW
Pressure: 29.91"   Gusts: NA
Location:  31.07°S, 64.3°W
Report Text: SACO 251200Z 34002KT CAVOK 27/22 Q1013
Loading
Personal Weather Stations






























Interactive Weather Map New forecast layout! Learn more

10-Day Weather Forecast

Advertisements
Track Severe Weather on mobile